LIRP 192345Z 10002KT CAVOK 14/14 Q1026 NOSIG LIRP 192315Z 18003KT CAVOK 14/13 Q1026 NOSIG LIRP 192245Z 18002KT CAVOK 15/14 Q1026 NOSIG LIRP 192215Z 20001KT CAVOK 16/15 Q1026 NOSIG LIRP 192145Z 20002KT CAVOK 17/15 Q1026 NOSIG LIRP 192115Z 04001KT CAVOK 18/15 Q1026 NOSIG LIRP 192045Z 03001KT CAVOK 18/15 Q1026 NOSIG LIRP 192015Z 23003KT CAVOK 19/16 Q1026 NOSIG LIRP 191945Z 24004KT CAVOK 19/15 Q1026 NOSIG LIRP 191915Z 27004KT CAVOK 20/14 Q1025 NOSIG LIRP 191845Z 27005KT CAVOK 20/14 Q1025 NOSIG LIRP 191815Z 25005KT CAVOK 21/13 Q1025 NOSIG LIRP 191745Z 26007KT CAVOK 22/11 Q1024 NOSIG LIRP 191715Z 26006KT CAVOK 23/12 Q1024 NOSIG LIRP 191645Z 27008KT CAVOK 23/11 Q1024 NOSIG LIRP 191615Z 26008KT CAVOK 24/10 Q1024 NOSIG LIRP 191545Z 27007KT CAVOK 25/12 Q1024 NOSIG LIRP 191515Z 27008KT CAVOK 25/12 Q1024 NOSIG LIRP 191445Z 27008KT CAVOK 25/12 Q1024 NOSIG LIRP 191415Z 26010KT CAVOK 25/13 Q1024 NOSIG LIRP 191345Z 26011KT CAVOK 25/13 Q1024 NOSIG LIRP 191315Z 29009KT CAVOK 26/13 Q1024 NOSIG LIRP 191245Z 16005KT CAVOK 27/10 Q1024 NOSIG LIRP 191215Z 13006KT CAVOK 27/10 Q1024 NOSIG LIRP 191145Z 13006KT CAVOK 27/10 Q1024 NOSIG LIRP 191115Z 12007KT CAVOK 26/10 Q1025 NOSIG LIRP 191045Z 13008KT CAVOK 26/10 Q1025 NOSIG LIRP 191015Z 12007KT CAVOK 26/11 Q1025 NOSIG LIRP 190945Z 08005KT CAVOK 25/10 Q1025 NOSIG LIRP 190915Z 08005KT CAVOK 25/10 Q1025 NOSIG LIRP 190845Z VRB03KT CAVOK 23/09 Q1025 NOSIG LIRP 190815Z VRB01KT CAVOK 23/09 Q1025 NOSIG LIRP 190745Z VRB03KT CAVOK 22/08 Q1025 NOSIG LIRP 190715Z 09004KT CAVOK 21/09 Q1025 NOSIG LIRP 190645Z 10004KT CAVOK 19/08 Q1024 NOSIG LIRP 190615Z 11008KT CAVOK 17/08 Q1024 NOSIG LIRP 190545Z 12009KT CAVOK 16/08 Q1024 NOSIG LIRP 190515Z 12010KT CAVOK 16/07 Q1024 NOSIG LIRP 190445Z 12011KT CAVOK 16/06 Q1023 NOSIG LIRP 190415Z 15011KT CAVOK 16/07 Q1023 NOSIG LIRP 190345Z 15010KT CAVOK 16/07 Q1023 NOSIG LIRP 190315Z 15009KT CAVOK 16/07 Q1023 NOSIG LIRP 190245Z 15005KT CAVOK 17/08 Q1023 NOSIG LIRP 190215Z 10007KT CAVOK 19/04 Q1023 NOSIG LIRP 190145Z 23005KT CAVOK 19/04 Q1023 NOSIG LIRP 190115Z 10005KT CAVOK 18/06 Q1023 NOSIG LIRP 190045Z 11008KT CAVOK 17/07 Q1023 NOSIG LIRP 190015Z 10008KT CAVOK 18/07 Q1023 NOSIG LIRP 182345Z 12007KT CAVOK 18/07 Q1023 NOSIG LIRP 182315Z 10007KT CAVOK 19/08 Q1023 NOSIG LIRP 182245Z 10006KT CAVOK 19/07 Q1023 NOSIG LIRP 182215Z 10007KT CAVOK 19/09 Q1023 NOSIG LIRP 182145Z 10010KT 9999 FEW060 20/09 Q1022 NOSIG LIRP 182115Z 10012KT 9999 FEW060 20/09 Q1022 NOSIG LIRP 182045Z 10011KT 9999 SCT060 21/09 Q1022 NOSIG LIRP 182015Z 10012KT 9999 SCT060 22/09 Q1021 NOSIG LIRP 181945Z 10012KT 9999 SCT060 23/09 Q1021 NOSIG LIRP 181915Z 10012KT 9999 FEW050 23/09 Q1020 NOSIG LIRP 181845Z 09010KT 9999 FEW040 24/13 Q1020 NOSIG LIRP 181815Z 10008KT 9999 FEW040 24/16 Q1020 NOSIG LIRP 181745Z 12005KT CAVOK 25/18 Q1019 NOSIG LIRP 181715Z 20003KT CAVOK 25/19 Q1019 NOSIG LIRP 181645Z 03002KT CAVOK 25/17 Q1019 NOSIG LIRP 181615Z 30003KT CAVOK 25/19 Q1019 NOSIG LIRP 181545Z 30005KT CAVOK 24/18 Q1019 NOSIG LIRP 181515Z 30008KT CAVOK 25/18 Q1019 NOSIG LIRP 181445Z 30009KT CAVOK 26/15 Q1019 NOSIG LIRP 181415Z 30008KT CAVOK 28/12 Q1019 NOSIG LIRP 181345Z 27009KT CAVOK 28/13 Q1019 NOSIG LIRP 181315Z 30003KT CAVOK 29/13 Q1019 NOSIG LIRP 181245Z 10005KT CAVOK 28/13 Q1019 NOSIG

METAR Messwerte "PISA (CIV/IT-AFB" LIRP

Zurück zur Übersicht

Ortsname
Ländercode / m ü. NN
Zeit Temperatur Taupunkt Rel.
Luftfeuchte
Luftdruck:
Altimeter
NN
Station
Wind in Beaufort
(Knoten)
Sichtweite
(Meter)
Wolken
(Meter über Grund)
Wettererscheinung
PISA (CIV/IT-AFB
IT 1
Fr 20.05. 01:451414100 %1026
1026
1026
O 1 (2)>= 10000Nicht signifikant 
PISA (CIV/IT-AFB
IT 1
Fr 20.05. 01:15141394 %1026
1026
1026
S 2 (3)>= 10000Nicht signifikant 
PISA (CIV/IT-AFB
IT 1
Fr 20.05. 00:45151494 %1026
1026
1026
S 1 (2)>= 10000Nicht signifikant 
PISA (CIV/IT-AFB
IT 1
Fr 20.05. 00:15161594 %1026
1026
1026
SSW 1 (1)>= 10000Nicht signifikant 
PISA (CIV/IT-AFB
IT 1
Do 19.05. 23:45171588 %1026
1026
1026
SSW 1 (2)>= 10000Nicht signifikant 
PISA (CIV/IT-AFB
IT 1
Do 19.05. 23:15181583 %1026
1026
1026
NO 1 (1)>= 10000Nicht signifikant 
PISA (CIV/IT-AFB
IT 1
Do 19.05. 22:45181583 %1026
1026
1026
NNO 1 (1)>= 10000Nicht signifikant 
PISA (CIV/IT-AFB
IT 1
Do 19.05. 22:15191683 %1026
1026
1026
SW 2 (3)>= 10000Nicht signifikant 
PISA (CIV/IT-AFB
IT 1
Do 19.05. 21:45191578 %1026
1026
1026
WSW 2 (4)>= 10000Nicht signifikant 
PISA (CIV/IT-AFB
IT 1
Do 19.05. 21:15201468 %1025
1025
1025
W 2 (4)>= 10000Nicht signifikant 
PISA (CIV/IT-AFB
IT 1
Do 19.05. 20:45201468 %1025
1025
1025
W 2 (5)>= 10000Nicht signifikant 
PISA (CIV/IT-AFB
IT 1
Do 19.05. 20:15211360 %1025
1025
1025
WSW 2 (5)>= 10000Nicht signifikant 
PISA (CIV/IT-AFB
IT 1
Do 19.05. 19:45221150 %1024
1024
1024
W 3 (7)>= 10000Nicht signifikant 
PISA (CIV/IT-AFB
IT 1
Do 19.05. 19:15231250 %1024
1024
1024
W 2 (6)>= 10000Nicht signifikant 
PISA (CIV/IT-AFB
IT 1
Do 19.05. 18:45231147 %1024
1024
1024
W 3 (8)>= 10000Nicht signifikant 
PISA (CIV/IT-AFB
IT 1
Do 19.05. 18:15241041 %1024
1024
1024
W 3 (8)>= 10000Nicht signifikant 
PISA (CIV/IT-AFB
IT 1
Do 19.05. 17:45251244 %1024
1024
1024
W 3 (7)>= 10000Nicht signifikant 
PISA (CIV/IT-AFB
IT 1
Do 19.05. 17:15251244 %1024
1024
1024
W 3 (8)>= 10000Nicht signifikant 
PISA (CIV/IT-AFB
IT 1
Do 19.05. 16:45251244 %1024
1024
1024
W 3 (8)>= 10000Nicht signifikant 
PISA (CIV/IT-AFB
IT 1
Do 19.05. 16:15251347 %1024
1024
1024
W 3 (10)>= 10000Nicht signifikant 
PISA (CIV/IT-AFB
IT 1
Do 19.05. 15:45251347 %1024
1024
1024
W 4 (11)>= 10000Nicht signifikant 
PISA (CIV/IT-AFB
IT 1
Do 19.05. 15:15261345 %1024
1024
1024
WNW 3 (9)>= 10000Nicht signifikant 
PISA (CIV/IT-AFB
IT 1
Do 19.05. 14:45271034 %1024
1024
1024
SSO 2 (5)>= 10000Nicht signifikant 
PISA (CIV/IT-AFB
IT 1
Do 19.05. 14:15271034 %1024
1024
1024
SO 2 (6)>= 10000Nicht signifikant 
PISA (CIV/IT-AFB
IT 1
Do 19.05. 13:45271034 %1024
1024
1024
SO 2 (6)>= 10000Nicht signifikant 
PISA (CIV/IT-AFB
IT 1
Do 19.05. 13:15261037 %1025
1025
1025
OSO 3 (7)>= 10000Nicht signifikant 
PISA (CIV/IT-AFB
IT 1
Do 19.05. 12:45261037 %1025
1025
1025
SO 3 (8)>= 10000Nicht signifikant 
PISA (CIV/IT-AFB
IT 1
Do 19.05. 12:15261139 %1025
1025
1025
OSO 3 (7)>= 10000Nicht signifikant 
PISA (CIV/IT-AFB
IT 1
Do 19.05. 11:45251039 %1025
1025
1025
O 2 (5)>= 10000Nicht signifikant 
PISA (CIV/IT-AFB
IT 1
Do 19.05. 11:15251039 %1025
1025
1025
O 2 (5)>= 10000Nicht signifikant 
PISA (CIV/IT-AFB
IT 1
Do 19.05. 10:4523941 %1025
1025
1025
Uml 2 (3)>= 10000Nicht signifikant 
PISA (CIV/IT-AFB
IT 1
Do 19.05. 10:1523941 %1025
1025
1025
Uml 1 (1)>= 10000Nicht signifikant 
PISA (CIV/IT-AFB
IT 1
Do 19.05. 09:4522841 %1025
1025
1025
Uml 2 (3)>= 10000Nicht signifikant 
PISA (CIV/IT-AFB
IT 1
Do 19.05. 09:1521946 %1025
1025
1025
O 2 (4)>= 10000Nicht signifikant 
PISA (CIV/IT-AFB
IT 1
Do 19.05. 08:4519849 %1024
1024
1024
O 2 (4)>= 10000Nicht signifikant 
PISA (CIV/IT-AFB
IT 1
Do 19.05. 08:1517855 %1024
1024
1024
OSO 3 (8)>= 10000Nicht signifikant 
PISA (CIV/IT-AFB
IT 1
Do 19.05. 07:4516859 %1024
1024
1024
OSO 3 (9)>= 10000Nicht signifikant 
PISA (CIV/IT-AFB
IT 1
Do 19.05. 07:1516755 %1024
1024
1024
OSO 3 (10)>= 10000Nicht signifikant 
PISA (CIV/IT-AFB
IT 1
Do 19.05. 06:4516651 %1023
1023
1023
OSO 4 (11)>= 10000Nicht signifikant 
PISA (CIV/IT-AFB
IT 1
Do 19.05. 06:1516755 %1023
1023
1023
SSO 4 (11)>= 10000Nicht signifikant 
PISA (CIV/IT-AFB
IT 1
Do 19.05. 05:4516755 %1023
1023
1023
SSO 3 (10)>= 10000Nicht signifikant 
PISA (CIV/IT-AFB
IT 1
Do 19.05. 05:1516755 %1023
1023
1023
SSO 3 (9)>= 10000Nicht signifikant 
PISA (CIV/IT-AFB
IT 1
Do 19.05. 04:4517855 %1023
1023
1023
SSO 2 (5)>= 10000Nicht signifikant 
PISA (CIV/IT-AFB
IT 1
Do 19.05. 04:1519437 %1023
1023
1023
O 3 (7)>= 10000Nicht signifikant 
PISA (CIV/IT-AFB
IT 1
Do 19.05. 03:4519437 %1023
1023
1023
SW 2 (5)>= 10000Nicht signifikant 
PISA (CIV/IT-AFB
IT 1
Do 19.05. 03:1518645 %1023
1023
1023
O 2 (5)>= 10000Nicht signifikant 
PISA (CIV/IT-AFB
IT 1
Do 19.05. 02:4517752 %1023
1023
1023
OSO 3 (8)>= 10000Nicht signifikant 
PISA (CIV/IT-AFB
IT 1
Do 19.05. 02:1518749 %1023
1023
1023
O 3 (8)>= 10000Nicht signifikant 
PISA (CIV/IT-AFB
IT 1
Do 19.05. 01:4518749 %1023
1023
1023
OSO 3 (7)>= 10000Nicht signifikant 
PISA (CIV/IT-AFB
IT 1
Do 19.05. 01:1519849 %1023
1023
1023
O 3 (7)>= 10000Nicht signifikant 
PISA (CIV/IT-AFB
IT 1
Do 19.05. 00:4519746 %1023
1023
1023
O 2 (6)>= 10000Nicht signifikant 
PISA (CIV/IT-AFB
IT 1
Do 19.05. 00:1519952 %1023
1023
1023
O 3 (7)>= 10000Nicht signifikant 
PISA (CIV/IT-AFB
IT 1
Mi 18.05. 23:4520949 %1022
1022
1022
O 3 (10)>= 10000Leicht bewölkt (1800) 
PISA (CIV/IT-AFB
IT 1
Mi 18.05. 23:1520949 %1022
1022
1022
O 4 (12)>= 10000Leicht bewölkt (1800) 
PISA (CIV/IT-AFB
IT 1
Mi 18.05. 22:4521946 %1022
1022
1022
O 4 (11)>= 10000Wolkig (1800) 
PISA (CIV/IT-AFB
IT 1
Mi 18.05. 22:1522943 %1021
1021
1021
O 4 (12)>= 10000Wolkig (1800) 
PISA (CIV/IT-AFB
IT 1
Mi 18.05. 21:4523941 %1021
1021
1021
O 4 (12)>= 10000Wolkig (1800) 
PISA (CIV/IT-AFB
IT 1
Mi 18.05. 21:1523941 %1020
1020
1020
O 4 (12)>= 10000Leicht bewölkt (1500) 
PISA (CIV/IT-AFB
IT 1
Mi 18.05. 20:45241350 %1020
1020
1020
O 3 (10)>= 10000Leicht bewölkt (1200) 
PISA (CIV/IT-AFB
IT 1
Mi 18.05. 20:15241661 %1020
1020
1020
O 3 (8)>= 10000Leicht bewölkt (1200) 
PISA (CIV/IT-AFB
IT 1
Mi 18.05. 19:45251865 %1019
1019
1019
OSO 2 (5)>= 10000Nicht signifikant 
PISA (CIV/IT-AFB
IT 1
Mi 18.05. 19:15251969 %1019
1019
1019
SSW 2 (3)>= 10000Nicht signifikant 
PISA (CIV/IT-AFB
IT 1
Mi 18.05. 18:45251761 %1019
1019
1019
NNO 1 (2)>= 10000Nicht signifikant 
PISA (CIV/IT-AFB
IT 1
Mi 18.05. 18:15251969 %1019
1019
1019
WNW 2 (3)>= 10000Nicht signifikant 
PISA (CIV/IT-AFB
IT 1
Mi 18.05. 17:45241869 %1019
1019
1019
WNW 2 (5)>= 10000Nicht signifikant 
PISA (CIV/IT-AFB
IT 1
Mi 18.05. 17:15251865 %1019
1019
1019
WNW 3 (8)>= 10000Nicht signifikant 
PISA (CIV/IT-AFB
IT 1
Mi 18.05. 16:45261551 %1019
1019
1019
WNW 3 (9)>= 10000Nicht signifikant 
PISA (CIV/IT-AFB
IT 1
Mi 18.05. 16:15281237 %1019
1019
1019
WNW 3 (8)>= 10000Nicht signifikant 
PISA (CIV/IT-AFB
IT 1
Mi 18.05. 15:45281340 %1019
1019
1019
W 3 (9)>= 10000Nicht signifikant 
PISA (CIV/IT-AFB
IT 1
Mi 18.05. 15:15291337 %1019
1019
1019
WNW 2 (3)>= 10000Nicht signifikant 
PISA (CIV/IT-AFB
IT 1
Mi 18.05. 14:45281340 %1019
1019
1019
O 2 (5)>= 10000Nicht signifikant 

Altimeter: Einstellung am Altimeter (Höhenmesser), die Höhe 0 muss auf diesen Luftdruckwert zeigen, damit das Gerät die Stationshöhe richtig anzeigt.

NN: Luftdruck reduziert auf "Normal Null", auf Meereshöhe, dieser von der Temperatur abhängige Wert wird bisweilen unkorrekt einfach als "Luftdruck" bezeichnet. Eigentlich nur eine fiktive Größe, die es erlaubt, Stationen auf unterschiedlichen Höhen miteinander zu vergleichen.

Station: Realer Luftdruck an der Station.